sensor_id;sensor_type;location;lat;lon;timestamp;temperature;humidity
19966;DHT22;10144;50.874;4.762;2023-11-19T00:01:07;13.50;99.90
19966;DHT22;10144;50.874;4.762;2023-11-19T00:03:36;13.50;99.90
19966;DHT22;10144;50.874;4.762;2023-11-19T00:06:23;13.60;99.90
19966;DHT22;10144;50.874;4.762;2023-11-19T00:08:49;13.60;99.90
19966;DHT22;10144;50.874;4.762;2023-11-19T00:11:30;13.50;99.90
19966;DHT22;10144;50.874;4.762;2023-11-19T00:13:59;13.40;99.90
19966;DHT22;10144;50.874;4.762;2023-11-19T00:16:28;13.40;99.90
19966;DHT22;10144;50.874;4.762;2023-11-19T00:18:57;13.50;99.90
19966;DHT22;10144;50.874;4.762;2023-11-19T00:21:26;13.60;99.90
19966;DHT22;10144;50.874;4.762;2023-11-19T00:24:03;13.60;99.90
19966;DHT22;10144;50.874;4.762;2023-11-19T00:26:40;13.60;99.90
19966;DHT22;10144;50.874;4.762;2023-11-19T00:29:08;13.60;99.90
19966;DHT22;10144;50.874;4.762;2023-11-19T00:31:37;13.50;99.90
19966;DHT22;10144;50.874;4.762;2023-11-19T00:34:06;13.50;99.90
19966;DHT22;10144;50.874;4.762;2023-11-19T00:36:31;13.50;99.90
19966;DHT22;10144;50.874;4.762;2023-11-19T00:38:58;13.60;99.90
19966;DHT22;10144;50.874;4.762;2023-11-19T00:41:30;13.50;99.90
19966;DHT22;10144;50.874;4.762;2023-11-19T00:43:58;13.50;99.90
19966;DHT22;10144;50.874;4.762;2023-11-19T00:46:36;13.50;99.90
19966;DHT22;10144;50.874;4.762;2023-11-19T00:49:02;13.50;99.90
19966;DHT22;10144;50.874;4.762;2023-11-19T00:51:32;13.50;99.90
19966;DHT22;10144;50.874;4.762;2023-11-19T00:57:18;13.50;99.90
19966;DHT22;10144;50.874;4.762;2023-11-19T01:00:05;13.60;99.90
19966;DHT22;10144;50.874;4.762;2023-11-19T01:03:21;13.60;99.90
19966;DHT22;10144;50.874;4.762;2023-11-19T01:05:50;13.60;99.90
19966;DHT22;10144;50.874;4.762;2023-11-19T01:08:32;13.50;99.90
19966;DHT22;10144;50.874;4.762;2023-11-19T01:11:05;13.40;99.90
19966;DHT22;10144;50.874;4.762;2023-11-19T01:13:48;13.40;99.90
19966;DHT22;10144;50.874;4.762;2023-11-19T01:19:55;13.40;99.90
19966;DHT22;10144;50.874;4.762;2023-11-19T01:22:40;13.30;99.90
19966;DHT22;10144;50.874;4.762;2023-11-19T01:25:15;13.30;99.90
19966;DHT22;10144;50.874;4.762;2023-11-19T01:27:47;13.30;99.90
19966;DHT22;10144;50.874;4.762;2023-11-19T01:30:19;13.30;99.90
19966;DHT22;10144;50.874;4.762;2023-11-19T01:32:51;13.30;99.90
19966;DHT22;10144;50.874;4.762;2023-11-19T01:35:24;13.30;99.90
19966;DHT22;10144;50.874;4.762;2023-11-19T01:37:53;13.30;99.90
19966;DHT22;10144;50.874;4.762;2023-11-19T01:40:37;13.30;99.90
19966;DHT22;10144;50.874;4.762;2023-11-19T01:43:38;13.30;99.90
19966;DHT22;10144;50.874;4.762;2023-11-19T01:46:13;13.30;99.90
19966;DHT22;10144;50.874;4.762;2023-11-19T01:49:08;13.30;99.90
19966;DHT22;10144;50.874;4.762;2023-11-19T01:51:36;13.40;99.90
19966;DHT22;10144;50.874;4.762;2023-11-19T01:54:02;13.50;99.90
19966;DHT22;10144;50.874;4.762;2023-11-19T01:56:32;13.40;99.90
19966;DHT22;10144;50.874;4.762;2023-11-19T01:59:00;13.40;99.90
19966;DHT22;10144;50.874;4.762;2023-11-19T02:01:32;13.50;99.90
19966;DHT22;10144;50.874;4.762;2023-11-19T02:04:02;13.50;99.90
19966;DHT22;10144;50.874;4.762;2023-11-19T02:06:28;13.40;99.90
19966;DHT22;10144;50.874;4.762;2023-11-19T02:09:00;13.40;99.90
19966;DHT22;10144;50.874;4.762;2023-11-19T02:11:29;13.40;99.90
19966;DHT22;10144;50.874;4.762;2023-11-19T02:13:57;13.30;99.90
19966;DHT22;10144;50.874;4.762;2023-11-19T02:16:23;13.20;99.90
19966;DHT22;10144;50.874;4.762;2023-11-19T02:18:48;13.10;99.90
19966;DHT22;10144;50.874;4.762;2023-11-19T02:21:17;13.00;99.90
19966;DHT22;10144;50.874;4.762;2023-11-19T02:23:46;13.00;99.90
19966;DHT22;10144;50.874;4.762;2023-11-19T02:26:58;12.90;99.90
19966;DHT22;10144;50.874;4.762;2023-11-19T02:29:25;12.80;99.90
19966;DHT22;10144;50.874;4.762;2023-11-19T02:31:53;12.70;99.90
19966;DHT22;10144;50.874;4.762;2023-11-19T02:34:26;12.70;99.90
19966;DHT22;10144;50.874;4.762;2023-11-19T02:36:52;12.60;99.90
19966;DHT22;10144;50.874;4.762;2023-11-19T02:39:25;12.50;99.90
19966;DHT22;10144;50.874;4.762;2023-11-19T02:42:17;12.50;99.90
19966;DHT22;10144;50.874;4.762;2023-11-19T02:44:46;12.40;99.90
19966;DHT22;10144;50.874;4.762;2023-11-19T02:47:17;12.40;99.90
19966;DHT22;10144;50.874;4.762;2023-11-19T02:49:45;12.40;99.90
19966;DHT22;10144;50.874;4.762;2023-11-19T02:52:12;12.40;99.90
19966;DHT22;10144;50.874;4.762;2023-11-19T02:54:37;12.30;99.90
19966;DHT22;10144;50.874;4.762;2023-11-19T02:57:03;12.30;99.90
19966;DHT22;10144;50.874;4.762;2023-11-19T02:59:30;12.30;99.90
19966;DHT22;10144;50.874;4.762;2023-11-19T03:02:05;12.40;99.90
19966;DHT22;10144;50.874;4.762;2023-11-19T03:04:35;12.40;99.90
19966;DHT22;10144;50.874;4.762;2023-11-19T03:07:04;12.40;99.90
19966;DHT22;10144;50.874;4.762;2023-11-19T03:09:31;12.50;99.90
19966;DHT22;10144;50.874;4.762;2023-11-19T03:11:57;12.50;99.90
19966;DHT22;10144;50.874;4.762;2023-11-19T03:14:26;12.50;99.90
19966;DHT22;10144;50.874;4.762;2023-11-19T03:16:55;12.50;99.90
19966;DHT22;10144;50.874;4.762;2023-11-19T03:19:21;12.50;99.90
19966;DHT22;10144;50.874;4.762;2023-11-19T03:21:48;12.60;99.90
19966;DHT22;10144;50.874;4.762;2023-11-19T03:24:17;12.60;99.90
19966;DHT22;10144;50.874;4.762;2023-11-19T03:26:48;12.60;99.90
19966;DHT22;10144;50.874;4.762;2023-11-19T03:29:15;12.60;99.90
19966;DHT22;10144;50.874;4.762;2023-11-19T03:31:44;12.50;99.90
19966;DHT22;10144;50.874;4.762;2023-11-19T03:34:13;12.50;99.90
19966;DHT22;10144;50.874;4.762;2023-11-19T03:36:39;12.50;99.90
19966;DHT22;10144;50.874;4.762;2023-11-19T03:39:09;12.40;99.90
19966;DHT22;10144;50.874;4.762;2023-11-19T03:41:38;12.50;99.90
19966;DHT22;10144;50.874;4.762;2023-11-19T03:44:06;12.40;99.90
19966;DHT22;10144;50.874;4.762;2023-11-19T03:46:35;12.30;99.90
19966;DHT22;10144;50.874;4.762;2023-11-19T03:49:01;12.20;99.90
19966;DHT22;10144;50.874;4.762;2023-11-19T03:51:32;12.20;99.90
19966;DHT22;10144;50.874;4.762;2023-11-19T03:54:02;12.10;99.90
19966;DHT22;10144;50.874;4.762;2023-11-19T03:56:28;12.20;99.90
19966;DHT22;10144;50.874;4.762;2023-11-19T03:58:54;12.10;99.90
19966;DHT22;10144;50.874;4.762;2023-11-19T04:01:26;12.10;99.90
19966;DHT22;10144;50.874;4.762;2023-11-19T04:03:53;12.00;99.90
19966;DHT22;10144;50.874;4.762;2023-11-19T04:06:26;12.00;99.90
19966;DHT22;10144;50.874;4.762;2023-11-19T04:08:55;11.90;99.90
19966;DHT22;10144;50.874;4.762;2023-11-19T04:11:24;11.90;99.90
19966;DHT22;10144;50.874;4.762;2023-11-19T04:14:05;11.90;99.90
19966;DHT22;10144;50.874;4.762;2023-11-19T04:16:37;12.00;99.90
19966;DHT22;10144;50.874;4.762;2023-11-19T04:19:03;11.90;99.90
19966;DHT22;10144;50.874;4.762;2023-11-19T04:21:30;11.90;99.90
19966;DHT22;10144;50.874;4.762;2023-11-19T04:24:02;11.80;99.90
19966;DHT22;10144;50.874;4.762;2023-11-19T04:26:28;11.80;99.90
19966;DHT22;10144;50.874;4.762;2023-11-19T04:28:56;11.90;99.90
19966;DHT22;10144;50.874;4.762;2023-11-19T04:31:29;11.80;99.90
19966;DHT22;10144;50.874;4.762;2023-11-19T04:33:59;11.90;99.90
19966;DHT22;10144;50.874;4.762;2023-11-19T04:36:39;11.90;99.90
19966;DHT22;10144;50.874;4.762;2023-11-19T04:39:24;11.80;99.90
19966;DHT22;10144;50.874;4.762;2023-11-19T04:41:57;11.90;99.90
19966;DHT22;10144;50.874;4.762;2023-11-19T04:44:24;11.80;99.90
19966;DHT22;10144;50.874;4.762;2023-11-19T04:46:53;11.80;99.90
19966;DHT22;10144;50.874;4.762;2023-11-19T04:49:21;11.70;99.90
19966;DHT22;10144;50.874;4.762;2023-11-19T04:51:48;11.80;99.90
19966;DHT22;10144;50.874;4.762;2023-11-19T04:54:18;11.70;99.90
19966;DHT22;10144;50.874;4.762;2023-11-19T04:56:49;11.70;99.90
19966;DHT22;10144;50.874;4.762;2023-11-19T04:59:14;11.80;99.90
19966;DHT22;10144;50.874;4.762;2023-11-19T05:01:47;11.70;99.90
19966;DHT22;10144;50.874;4.762;2023-11-19T05:04:19;11.70;99.90
19966;DHT22;10144;50.874;4.762;2023-11-19T05:06:44;11.70;99.90
19966;DHT22;10144;50.874;4.762;2023-11-19T05:09:14;11.70;99.90
19966;DHT22;10144;50.874;4.762;2023-11-19T05:11:45;11.60;99.90
19966;DHT22;10144;50.874;4.762;2023-11-19T05:14:14;11.60;99.90
19966;DHT22;10144;50.874;4.762;2023-11-19T05:16:40;11.60;99.90
19966;DHT22;10144;50.874;4.762;2023-11-19T05:19:06;11.50;99.90
19966;DHT22;10144;50.874;4.762;2023-11-19T05:21:35;11.50;99.90
19966;DHT22;10144;50.874;4.762;2023-11-19T05:24:20;11.50;99.90
19966;DHT22;10144;50.874;4.762;2023-11-19T05:26:48;11.60;99.90
19966;DHT22;10144;50.874;4.762;2023-11-19T05:29:18;11.60;99.90
19966;DHT22;10144;50.874;4.762;2023-11-19T05:31:50;11.50;99.90
19966;DHT22;10144;50.874;4.762;2023-11-19T05:34:19;11.50;99.90
19966;DHT22;10144;50.874;4.762;2023-11-19T05:36:46;11.50;99.90
19966;DHT22;10144;50.874;4.762;2023-11-19T05:39:14;11.50;99.90
19966;DHT22;10144;50.874;4.762;2023-11-19T05:41:43;11.40;99.90
19966;DHT22;10144;50.874;4.762;2023-11-19T05:44:12;11.40;99.90
19966;DHT22;10144;50.874;4.762;2023-11-19T05:46:39;11.30;99.90
19966;DHT22;10144;50.874;4.762;2023-11-19T05:49:11;11.30;99.90
19966;DHT22;10144;50.874;4.762;2023-11-19T05:51:40;11.30;99.90
19966;DHT22;10144;50.874;4.762;2023-11-19T05:54:10;11.10;99.90
19966;DHT22;10144;50.874;4.762;2023-11-19T05:56:39;11.20;99.90
19966;DHT22;10144;50.874;4.762;2023-11-19T05:59:08;11.10;99.90
19966;DHT22;10144;50.874;4.762;2023-11-19T06:01:43;11.20;99.90
19966;DHT22;10144;50.874;4.762;2023-11-19T06:04:12;11.20;99.90
19966;DHT22;10144;50.874;4.762;2023-11-19T06:06:40;11.20;99.90
19966;DHT22;10144;50.874;4.762;2023-11-19T06:09:08;11.20;99.90
19966;DHT22;10144;50.874;4.762;2023-11-19T06:11:38;11.20;99.90
19966;DHT22;10144;50.874;4.762;2023-11-19T06:14:06;11.20;99.90
19966;DHT22;10144;50.874;4.762;2023-11-19T06:16:38;11.20;99.90
19966;DHT22;10144;50.874;4.762;2023-11-19T06:19:11;11.10;99.90
19966;DHT22;10144;50.874;4.762;2023-11-19T06:21:40;11.00;99.90
19966;DHT22;10144;50.874;4.762;2023-11-19T06:24:08;11.00;99.90
19966;DHT22;10144;50.874;4.762;2023-11-19T06:26:36;11.00;99.90
19966;DHT22;10144;50.874;4.762;2023-11-19T06:29:07;10.90;99.90
19966;DHT22;10144;50.874;4.762;2023-11-19T06:31:46;10.90;99.90
19966;DHT22;10144;50.874;4.762;2023-11-19T06:34:18;10.80;99.90
19966;DHT22;10144;50.874;4.762;2023-11-19T06:36:45;10.80;99.90
19966;DHT22;10144;50.874;4.762;2023-11-19T06:39:10;11.00;99.90
19966;DHT22;10144;50.874;4.762;2023-11-19T06:41:46;10.90;99.90
19966;DHT22;10144;50.874;4.762;2023-11-19T06:44:17;10.80;99.90
19966;DHT22;10144;50.874;4.762;2023-11-19T06:46:48;10.80;99.90
19966;DHT22;10144;50.874;4.762;2023-11-19T06:49:15;10.80;99.90
19966;DHT22;10144;50.874;4.762;2023-11-19T06:51:48;10.70;99.90
19966;DHT22;10144;50.874;4.762;2023-11-19T06:54:19;10.80;99.90
19966;DHT22;10144;50.874;4.762;2023-11-19T06:56:48;10.90;99.90
19966;DHT22;10144;50.874;4.762;2023-11-19T06:59:14;10.90;99.90
19966;DHT22;10144;50.874;4.762;2023-11-19T07:01:43;10.80;99.90
19966;DHT22;10144;50.874;4.762;2023-11-19T07:04:11;10.90;99.90
19966;DHT22;10144;50.874;4.762;2023-11-19T07:06:40;11.20;99.90
19966;DHT22;10144;50.874;4.762;2023-11-19T07:09:42;11.10;99.90
19966;DHT22;10144;50.874;4.762;2023-11-19T07:12:11;11.00;99.90
19966;DHT22;10144;50.874;4.762;2023-11-19T07:14:38;10.90;99.90
19966;DHT22;10144;50.874;4.762;2023-11-19T07:17:07;10.80;99.90
19966;DHT22;10144;50.874;4.762;2023-11-19T07:19:37;10.70;99.90
19966;DHT22;10144;50.874;4.762;2023-11-19T07:22:05;10.80;99.90
19966;DHT22;10144;50.874;4.762;2023-11-19T07:24:31;10.90;99.90
19966;DHT22;10144;50.874;4.762;2023-11-19T07:27:00;11.00;99.90
19966;DHT22;10144;50.874;4.762;2023-11-19T07:29:32;11.00;99.90
19966;DHT22;10144;50.874;4.762;2023-11-19T07:32:01;11.00;99.90
19966;DHT22;10144;50.874;4.762;2023-11-19T07:34:30;11.20;99.90
19966;DHT22;10144;50.874;4.762;2023-11-19T07:37:02;11.40;99.90
19966;DHT22;10144;50.874;4.762;2023-11-19T07:39:36;11.50;99.90
19966;DHT22;10144;50.874;4.762;2023-11-19T07:42:06;11.60;99.90
19966;DHT22;10144;50.874;4.762;2023-11-19T07:48:07;12.20;99.90
19966;DHT22;10144;50.874;4.762;2023-11-19T07:50:33;12.50;99.90
19966;DHT22;10144;50.874;4.762;2023-11-19T07:52:59;12.40;99.90
19966;DHT22;10144;50.874;4.762;2023-11-19T07:55:25;12.50;99.90
19966;DHT22;10144;50.874;4.762;2023-11-19T07:57:53;12.80;99.90
19966;DHT22;10144;50.874;4.762;2023-11-19T08:00:19;13.10;99.90
19966;DHT22;10144;50.874;4.762;2023-11-19T08:02:45;13.50;99.90
19966;DHT22;10144;50.874;4.762;2023-11-19T08:05:10;13.90;99.90
19966;DHT22;10144;50.874;4.762;2023-11-19T08:07:37;14.30;99.90
19966;DHT22;10144;50.874;4.762;2023-11-19T08:10:05;14.70;99.90
19966;DHT22;10144;50.874;4.762;2023-11-19T08:12:31;15.10;99.90
19966;DHT22;10144;50.874;4.762;2023-11-19T08:14:57;15.40;99.90
19966;DHT22;10144;50.874;4.762;2023-11-19T08:17:24;15.70;99.90
19966;DHT22;10144;50.874;4.762;2023-11-19T08:19:56;16.00;99.90
19966;DHT22;10144;50.874;4.762;2023-11-19T08:22:23;16.10;99.90
19966;DHT22;10144;50.874;4.762;2023-11-19T08:24:51;16.00;99.90
19966;DHT22;10144;50.874;4.762;2023-11-19T08:27:19;16.30;99.90
19966;DHT22;10144;50.874;4.762;2023-11-19T08:29:55;16.60;99.90
19966;DHT22;10144;50.874;4.762;2023-11-19T08:32:25;17.10;99.90
19966;DHT22;10144;50.874;4.762;2023-11-19T08:34:59;17.20;99.90
19966;DHT22;10144;50.874;4.762;2023-11-19T08:37:25;17.40;99.90
19966;DHT22;10144;50.874;4.762;2023-11-19T08:39:54;17.60;99.90
19966;DHT22;10144;50.874;4.762;2023-11-19T08:42:26;17.60;99.90
19966;DHT22;10144;50.874;4.762;2023-11-19T08:44:57;17.60;99.90
19966;DHT22;10144;50.874;4.762;2023-11-19T08:47:27;18.10;99.90
19966;DHT22;10144;50.874;4.762;2023-11-19T08:49:54;18.30;99.90
19966;DHT22;10144;50.874;4.762;2023-11-19T08:52:20;18.90;99.90
19966;DHT22;10144;50.874;4.762;2023-11-19T08:54:46;19.10;99.90
19966;DHT22;10144;50.874;4.762;2023-11-19T08:57:12;18.90;94.90
19966;DHT22;10144;50.874;4.762;2023-11-19T08:59:37;18.50;99.90
19966;DHT22;10144;50.874;4.762;2023-11-19T09:02:05;17.30;99.90
19966;DHT22;10144;50.874;4.762;2023-11-19T09:04:30;16.50;99.90
19966;DHT22;10144;50.874;4.762;2023-11-19T09:06:57;15.50;99.90
19966;DHT22;10144;50.874;4.762;2023-11-19T09:09:23;15.00;99.90
19966;DHT22;10144;50.874;4.762;2023-11-19T09:11:50;14.60;99.90
19966;DHT22;10144;50.874;4.762;2023-11-19T09:14:15;14.10;99.90
19966;DHT22;10144;50.874;4.762;2023-11-19T09:16:41;13.70;99.90
19966;DHT22;10144;50.874;4.762;2023-11-19T09:19:06;13.30;99.90
19966;DHT22;10144;50.874;4.762;2023-11-19T09:21:32;13.20;99.90
19966;DHT22;10144;50.874;4.762;2023-11-19T09:24:00;13.20;99.90
19966;DHT22;10144;50.874;4.762;2023-11-19T09:26:25;13.00;99.90
19966;DHT22;10144;50.874;4.762;2023-11-19T09:28:51;13.30;99.90
19966;DHT22;10144;50.874;4.762;2023-11-19T09:31:17;13.30;99.90
19966;DHT22;10144;50.874;4.762;2023-11-19T09:33:43;13.40;99.90
19966;DHT22;10144;50.874;4.762;2023-11-19T09:36:09;13.70;99.90
19966;DHT22;10144;50.874;4.762;2023-11-19T09:38:37;14.90;99.90
19966;DHT22;10144;50.874;4.762;2023-11-19T09:41:06;16.60;99.90
19966;DHT22;10144;50.874;4.762;2023-11-19T09:43:39;17.50;99.90
19966;DHT22;10144;50.874;4.762;2023-11-19T09:46:13;18.00;99.90
19966;DHT22;10144;50.874;4.762;2023-11-19T09:48:39;18.10;99.90
19966;DHT22;10144;50.874;4.762;2023-11-19T09:51:10;18.20;99.90
19966;DHT22;10144;50.874;4.762;2023-11-19T09:53:37;18.50;99.90
19966;DHT22;10144;50.874;4.762;2023-11-19T09:56:04;18.50;99.90
19966;DHT22;10144;50.874;4.762;2023-11-19T09:58:30;19.10;99.90
19966;DHT22;10144;50.874;4.762;2023-11-19T10:00:57;19.30;78.20
19966;DHT22;10144;50.874;4.762;2023-11-19T10:03:26;20.30;68.00
19966;DHT22;10144;50.874;4.762;2023-11-19T10:05:53;20.90;35.30
19966;DHT22;10144;50.874;4.762;2023-11-19T10:08:20;21.60;7.60
19966;DHT22;10144;50.874;4.762;2023-11-19T10:10:45;22.80;1.00
19966;DHT22;10144;50.874;4.762;2023-11-19T10:13:12;22.50;1.00
19966;DHT22;10144;50.874;4.762;2023-11-19T10:15:40;22.20;1.00
19966;DHT22;10144;50.874;4.762;2023-11-19T10:18:06;21.90;1.00
19966;DHT22;10144;50.874;4.762;2023-11-19T10:20:40;21.80;1.00
19966;DHT22;10144;50.874;4.762;2023-11-19T10:23:06;20.70;9.90
19966;DHT22;10144;50.874;4.762;2023-11-19T10:25:32;21.20;19.00
19966;DHT22;10144;50.874;4.762;2023-11-19T10:27:59;21.70;1.00
19966;DHT22;10144;50.874;4.762;2023-11-19T10:30:27;20.60;15.70
19966;DHT22;10144;50.874;4.762;2023-11-19T10:35:27;20.70;36.10
19966;DHT22;10144;50.874;4.762;2023-11-19T10:37:53;21.10;1.00
19966;DHT22;10144;50.874;4.762;2023-11-19T10:40:18;20.90;1.00
19966;DHT22;10144;50.874;4.762;2023-11-19T10:42:44;20.30;1.00
19966;DHT22;10144;50.874;4.762;2023-11-19T10:45:22;19.70;57.20
19966;DHT22;10144;50.874;4.762;2023-11-19T10:47:51;18.60;98.40
19966;DHT22;10144;50.874;4.762;2023-11-19T10:50:17;18.30;99.90
19966;DHT22;10144;50.874;4.762;2023-11-19T10:52:44;18.20;99.90
19966;DHT22;10144;50.874;4.762;2023-11-19T10:55:11;18.00;99.90
19966;DHT22;10144;50.874;4.762;2023-11-19T10:57:43;17.60;99.90
19966;DHT22;10144;50.874;4.762;2023-11-19T11:00:13;17.20;99.90
19966;DHT22;10144;50.874;4.762;2023-11-19T11:02:41;17.00;99.90
19966;DHT22;10144;50.874;4.762;2023-11-19T11:05:08;16.60;99.90
19966;DHT22;10144;50.874;4.762;2023-11-19T11:07:35;16.30;99.90
19966;DHT22;10144;50.874;4.762;2023-11-19T11:10:02;15.90;99.90
19966;DHT22;10144;50.874;4.762;2023-11-19T11:12:29;15.60;99.90
19966;DHT22;10144;50.874;4.762;2023-11-19T11:14:56;15.10;99.90
19966;DHT22;10144;50.874;4.762;2023-11-19T11:17:24;14.80;99.90
19966;DHT22;10144;50.874;4.762;2023-11-19T11:19:53;14.50;99.90
19966;DHT22;10144;50.874;4.762;2023-11-19T11:22:19;15.00;99.90
19966;DHT22;10144;50.874;4.762;2023-11-19T11:27:52;15.40;99.90
19966;DHT22;10144;50.874;4.762;2023-11-19T11:33:04;14.90;99.90
19966;DHT22;10144;50.874;4.762;2023-11-19T11:38:14;14.90;99.90
19966;DHT22;10144;50.874;4.762;2023-11-19T11:40:40;14.90;99.90
19966;DHT22;10144;50.874;4.762;2023-11-19T11:43:44;15.20;99.90
19966;DHT22;10144;50.874;4.762;2023-11-19T11:49:03;16.70;99.90
19966;DHT22;10144;50.874;4.762;2023-11-19T11:57:12;18.10;99.90
19966;DHT22;10144;50.874;4.762;2023-11-19T12:02:17;17.70;99.90
19966;DHT22;10144;50.874;4.762;2023-11-19T12:04:50;18.00;99.90
19966;DHT22;10144;50.874;4.762;2023-11-19T12:07:24;18.20;99.90
19966;DHT22;10144;50.874;4.762;2023-11-19T12:10:06;18.70;98.10
19966;DHT22;10144;50.874;4.762;2023-11-19T12:12:34;19.20;45.10
19966;DHT22;10144;50.874;4.762;2023-11-19T12:15:08;19.10;57.20
19966;DHT22;10144;50.874;4.762;2023-11-19T12:17:40;19.20;67.60
19966;DHT22;10144;50.874;4.762;2023-11-19T12:20:07;19.10;70.20
19966;DHT22;10144;50.874;4.762;2023-11-19T12:22:40;19.10;66.00
19966;DHT22;10144;50.874;4.762;2023-11-19T12:25:07;19.00;61.00
19966;DHT22;10144;50.874;4.762;2023-11-19T12:27:34;18.50;92.50
19966;DHT22;10144;50.874;4.762;2023-11-19T12:30:01;18.30;99.90
19966;DHT22;10144;50.874;4.762;2023-11-19T12:32:40;18.10;96.20
19966;DHT22;10144;50.874;4.762;2023-11-19T12:35:09;17.90;99.90
19966;DHT22;10144;50.874;4.762;2023-11-19T12:37:41;17.20;99.90
19966;DHT22;10144;50.874;4.762;2023-11-19T12:42:38;16.00;99.90
19966;DHT22;10144;50.874;4.762;2023-11-19T12:45:05;15.30;99.90
19966;DHT22;10144;50.874;4.762;2023-11-19T12:47:31;15.00;99.90
19966;DHT22;10144;50.874;4.762;2023-11-19T12:49:57;14.50;99.90
19966;DHT22;10144;50.874;4.762;2023-11-19T12:52:23;14.40;99.90
19966;DHT22;10144;50.874;4.762;2023-11-19T12:54:49;14.40;99.90
19966;DHT22;10144;50.874;4.762;2023-11-19T12:57:15;14.40;99.90
19966;DHT22;10144;50.874;4.762;2023-11-19T12:59:41;14.30;99.90
19966;DHT22;10144;50.874;4.762;2023-11-19T13:02:08;14.20;99.90
19966;DHT22;10144;50.874;4.762;2023-11-19T13:04:34;14.20;99.90
19966;DHT22;10144;50.874;4.762;2023-11-19T13:07:01;14.30;99.90
19966;DHT22;10144;50.874;4.762;2023-11-19T13:09:29;14.40;99.90
19966;DHT22;10144;50.874;4.762;2023-11-19T13:11:55;14.50;99.90
19966;DHT22;10144;50.874;4.762;2023-11-19T13:14:35;14.70;99.90
19966;DHT22;10144;50.874;4.762;2023-11-19T13:17:07;14.70;99.90
19966;DHT22;10144;50.874;4.762;2023-11-19T13:19:36;14.70;99.90
19966;DHT22;10144;50.874;4.762;2023-11-19T13:22:05;14.60;99.90
19966;DHT22;10144;50.874;4.762;2023-11-19T13:24:37;14.60;99.90
19966;DHT22;10144;50.874;4.762;2023-11-19T13:27:03;14.80;99.90
19966;DHT22;10144;50.874;4.762;2023-11-19T13:29:29;14.90;99.90
19966;DHT22;10144;50.874;4.762;2023-11-19T13:31:55;14.80;99.90
19966;DHT22;10144;50.874;4.762;2023-11-19T13:34:23;14.60;99.90
19966;DHT22;10144;50.874;4.762;2023-11-19T13:36:49;14.40;99.90
19966;DHT22;10144;50.874;4.762;2023-11-19T13:39:14;14.40;99.90
19966;DHT22;10144;50.874;4.762;2023-11-19T13:41:48;14.20;99.90
19966;DHT22;10144;50.874;4.762;2023-11-19T13:44:13;14.00;99.90
19966;DHT22;10144;50.874;4.762;2023-11-19T13:46:39;14.10;99.90
19966;DHT22;10144;50.874;4.762;2023-11-19T13:49:05;14.20;99.90
19966;DHT22;10144;50.874;4.762;2023-11-19T13:51:30;14.20;99.90
19966;DHT22;10144;50.874;4.762;2023-11-19T13:53:57;14.10;99.90
19966;DHT22;10144;50.874;4.762;2023-11-19T13:56:22;14.10;99.90
19966;DHT22;10144;50.874;4.762;2023-11-19T13:58:48;13.80;99.90
19966;DHT22;10144;50.874;4.762;2023-11-19T14:01:14;13.70;99.90
19966;DHT22;10144;50.874;4.762;2023-11-19T14:03:40;13.70;99.90
19966;DHT22;10144;50.874;4.762;2023-11-19T14:06:05;13.70;99.90
19966;DHT22;10144;50.874;4.762;2023-11-19T14:08:33;13.70;99.90
19966;DHT22;10144;50.874;4.762;2023-11-19T14:10:59;13.50;99.90
19966;DHT22;10144;50.874;4.762;2023-11-19T14:13:24;13.50;99.90
19966;DHT22;10144;50.874;4.762;2023-11-19T14:15:50;13.50;99.90
19966;DHT22;10144;50.874;4.762;2023-11-19T14:18:17;13.30;99.90
19966;DHT22;10144;50.874;4.762;2023-11-19T14:20:42;13.20;99.90
19966;DHT22;10144;50.874;4.762;2023-11-19T14:23:09;13.20;99.90
19966;DHT22;10144;50.874;4.762;2023-11-19T14:25:35;13.10;99.90
19966;DHT22;10144;50.874;4.762;2023-11-19T14:28:00;13.10;99.90
19966;DHT22;10144;50.874;4.762;2023-11-19T14:30:26;13.00;99.90
19966;DHT22;10144;50.874;4.762;2023-11-19T14:32:52;13.00;99.90
19966;DHT22;10144;50.874;4.762;2023-11-19T14:35:19;12.90;99.90
19966;DHT22;10144;50.874;4.762;2023-11-19T14:37:45;13.00;99.90
19966;DHT22;10144;50.874;4.762;2023-11-19T14:40:11;13.10;99.90
19966;DHT22;10144;50.874;4.762;2023-11-19T14:42:37;13.00;99.90
19966;DHT22;10144;50.874;4.762;2023-11-19T14:45:04;13.20;99.90
19966;DHT22;10144;50.874;4.762;2023-11-19T14:47:30;13.20;99.90
19966;DHT22;10144;50.874;4.762;2023-11-19T14:49:56;13.10;99.90
19966;DHT22;10144;50.874;4.762;2023-11-19T14:52:21;13.00;99.90
19966;DHT22;10144;50.874;4.762;2023-11-19T14:54:47;12.80;99.90
19966;DHT22;10144;50.874;4.762;2023-11-19T14:57:15;12.80;99.90
19966;DHT22;10144;50.874;4.762;2023-11-19T14:59:40;12.70;99.90
19966;DHT22;10144;50.874;4.762;2023-11-19T15:02:06;12.70;99.90
19966;DHT22;10144;50.874;4.762;2023-11-19T15:04:32;12.60;99.90
19966;DHT22;10144;50.874;4.762;2023-11-19T15:06:58;12.60;99.90
19966;DHT22;10144;50.874;4.762;2023-11-19T15:09:24;12.60;99.90
19966;DHT22;10144;50.874;4.762;2023-11-19T15:11:51;12.50;99.90
19966;DHT22;10144;50.874;4.762;2023-11-19T15:14:21;12.60;99.90
19966;DHT22;10144;50.874;4.762;2023-11-19T15:16:47;12.60;99.90
19966;DHT22;10144;50.874;4.762;2023-11-19T15:19:13;12.70;99.90
19966;DHT22;10144;50.874;4.762;2023-11-19T15:21:40;12.80;99.90
19966;DHT22;10144;50.874;4.762;2023-11-19T15:24:06;12.80;99.90
19966;DHT22;10144;50.874;4.762;2023-11-19T15:26:34;12.70;99.90
19966;DHT22;10144;50.874;4.762;2023-11-19T15:29:04;12.60;99.90
19966;DHT22;10144;50.874;4.762;2023-11-19T15:31:31;12.50;99.90
19966;DHT22;10144;50.874;4.762;2023-11-19T15:33:57;12.40;99.90
19966;DHT22;10144;50.874;4.762;2023-11-19T15:36:29;12.40;99.90
19966;DHT22;10144;50.874;4.762;2023-11-19T15:39:08;12.40;99.90
19966;DHT22;10144;50.874;4.762;2023-11-19T15:41:33;12.40;99.90
19966;DHT22;10144;50.874;4.762;2023-11-19T15:44:12;12.50;99.90
19966;DHT22;10144;50.874;4.762;2023-11-19T15:46:40;12.50;99.90
19966;DHT22;10144;50.874;4.762;2023-11-19T15:49:07;12.60;99.90
19966;DHT22;10144;50.874;4.762;2023-11-19T15:51:36;12.60;99.90
19966;DHT22;10144;50.874;4.762;2023-11-19T15:54:01;12.70;99.90
19966;DHT22;10144;50.874;4.762;2023-11-19T15:56:27;12.70;99.90
19966;DHT22;10144;50.874;4.762;2023-11-19T15:58:56;12.70;99.90
19966;DHT22;10144;50.874;4.762;2023-11-19T16:01:28;12.80;99.90
19966;DHT22;10144;50.874;4.762;2023-11-19T16:03:56;12.80;99.90
19966;DHT22;10144;50.874;4.762;2023-11-19T16:06:22;12.80;99.90
19966;DHT22;10144;50.874;4.762;2023-11-19T16:08:51;13.00;99.90
19966;DHT22;10144;50.874;4.762;2023-11-19T16:11:20;13.00;99.90
19966;DHT22;10144;50.874;4.762;2023-11-19T16:14:18;13.00;99.90
19966;DHT22;10144;50.874;4.762;2023-11-19T16:16:53;12.90;99.90
19966;DHT22;10144;50.874;4.762;2023-11-19T16:19:18;12.90;99.90
19966;DHT22;10144;50.874;4.762;2023-11-19T16:21:47;12.80;99.90